Pigeon, MI (48755)

10:28 AM EDT on October 23, 2014 (GMT -0400)
Sand Point | Change Station
CLOSE
Current Station
Personal Weather Station
Location: Sand Point, MI
Elevation: 598 ft
Nearby Weather Stations

Elev 598 ft 43.91 °N, 83.38 °W | Updated 3 minutes ago

Fog
Fog
44.5 °F
Feels Like 44 °F
N
2.0
Wind Variable Wind from WSW
Gusts 5.0 mph

Today
High -- | Low -- °F
--% Chance of Precip.
Yesterday
High -- | Low -- °F
Precip. -- in
7:57 AM 6:36 PM
Waning Crescent, 0% visible
Pressure 30.25 in
Visibility 0.2 miles
Clouds Overcast 200 ft
Windchill 44 °F
Dew Point 42 °F
Humidity 89%
Rainfall 0.00 in
Snow Depth Not available.
UV 1.0 out of 12
Pollen .40 out of 12
PM2.5 Moderate
Flu Activity Sporadic
METAR KBAX 231358Z AUTO 00000KT M1/4SM FG OVC002 00/00 A3025 RMK AO2 T00040004

More Conditions Fewer Conditions

Pressure 30.25 in
Visibility 0.2 miles
Clouds Overcast 200 ft
Windchill 44 °F
Dew Point 42 °F
Humidity 89%
Rainfall 0.00 in
Snow Depth Not available.
UV 1.0 out of 12
Pollen .40 out of 12
PM2.5 Moderate
Flu Activity Sporadic
METAR KBAX 231358Z AUTO 00000KT M1/4SM FG OVC002 00/00 A3025 RMK AO2 T00040004

More Conditions Fewer Conditions

10-Day Weather Forecast

Almanac

Astronomy

Oct. 23, 2014 Rise Set
Actual Time 7:57 AM EDT 6:36 PM EDT
Civil Twilight 7:28 AM EDT 7:05 PM EDT
Nautical Twilight 6:54 AM EDT 7:39 PM EDT
Astronomical Twilight 6:21 AM EDT 8:12 PM EDT
Moon 7:35 AM EDT 6:37 PM EDT
Length of Visible Light 11h 37m
Length of Day
10h 39m
Tomorrow will be 2m 49s shorter.
Waning Crescent, 0% of the Moon is Illuminated
Today
Waning Crescent
Oct 23
New
Oct 30
First Quarter
Nov 6
Full
Nov 14
Last Quarter

Today's Extremes

State Highs State Lows

Community

WunderPhotos

Upload Photos

1,764,265 photos uploaded!

Nearby

Air Quality

  Air Quality AQ Index Pollutant
Yesterday Good
PM2.5
Current Moderate
PM2.5
Thursday Good
PM2.5
Friday Good
PM2.5
Saturday Good
PM2.5
Sunday Good
PM2.5
Monday Good
PM2.5

Snow Depth

Station Depth Elevation
No new snow has been reported.

Earthquake Activity

City Distance Mag. Time & Date
No recent earthquake activity has been reported nearby.
Minimum magnitude displayed is 2.5.

Coastal Water Temperatures

Place Temperature
Harbor Beach, MI 48.0 °F

Nearby Weather Stations